Time;durP1;ratioP1;P1;durP2;ratioP2;P2;SDS_P1;SDS_P2;PMS_P1;PMS_P2;Temp;Humidity;BMP_temperature;BMP_pressure;BME280_temperature;BME280_humidity;BME280_pressure;Samples;Min_cycle;Max_cycle;Signal;HPM_P1;HPM_P2
2023/10/26 00:01:21;;;;;;;8.85;1.58;;;;;;;21.11;67.11;95552.34;5094973;28;20417;-31
2023/10/26 00:03:47;;;;;;;19.15;2.40;;;;;;;21.04;67.45;95561.19;5094739;28;20016;-31
2023/10/26 00:06:12;;;;;;;6.95;1.60;;;;;;;21.03;67.64;95556.94;5094522;28;20074;-31
2023/10/26 00:08:38;;;;;;;9.90;2.70;;;;;;;21.04;67.62;95553.66;5094374;28;20023;-31
2023/10/26 00:11:04;;;;;;;9.23;1.42;;;;;;;21.00;67.43;95544.94;5095968;28;20387;-31
2023/10/26 00:13:29;;;;;;;13.68;1.80;;;;;;;21.04;67.31;95537.13;5100140;28;20047;-31
2023/10/26 00:15:54;;;;;;;8.65;2.17;;;;;;;21.06;67.25;95533.84;5101698;28;20059;-30
2023/10/26 00:18:20;;;;;;;5.25;1.50;;;;;;;21.04;67.43;95539.13;5094432;28;20020;-31
2023/10/26 00:20:46;;;;;;;11.32;1.45;;;;;;;21.02;67.47;95541.66;5094302;28;20036;-31
2023/10/26 00:23:11;;;;;;;8.38;1.20;;;;;;;20.92;67.43;95532.97;5093960;28;20431;-30
2023/10/26 00:25:37;;;;;;;15.38;1.48;;;;;;;21.09;67.08;95543.84;5094295;28;20107;-30
2023/10/26 00:28:03;;;;;;;8.90;1.70;;;;;;;21.04;67.22;95541.88;5094198;28;20072;-31
2023/10/26 00:30:29;;;;;;;10.00;1.15;;;;;;;21.07;67.43;95540.84;5101809;28;20051;-31
2023/10/26 00:32:54;;;;;;;8.23;1.70;;;;;;;21.00;67.38;95541.44;5094248;28;20054;-31
2023/10/26 00:35:19;;;;;;;5.70;1.17;;;;;;;21.03;67.16;95545.91;5093823;28;20016;-31
2023/10/26 00:37:45;;;;;;;7.80;1.30;;;;;;;21.07;67.18;95549.88;5093061;28;20031;-32
2023/10/26 00:40:11;;;;;;;9.70;1.90;;;;;;;21.08;66.77;95551.38;5093946;28;20051;-31
2023/10/26 00:42:36;;;;;;;9.27;1.52;;;;;;;21.02;67.00;95538.91;5094176;28;20027;-32
2023/10/26 00:45:02;;;;;;;10.55;1.75;;;;;;;21.02;67.33;95547.16;5094309;28;20028;-31
2023/10/26 00:47:28;;;;;;;9.90;1.92;;;;;;;21.05;67.20;95549.66;5093662;28;20464;-31
2023/10/26 00:49:54;;;;;;;9.13;1.40;;;;;;;21.03;67.20;95560.44;5093838;28;20023;-34
2023/10/26 00:52:21;;;;;;;5.88;1.25;;;;;;;21.06;67.15;95558.66;5094247;28;20047;-31
2023/10/26 00:54:47;;;;;;;11.68;1.95;;;;;;;21.00;67.45;95555.97;5093986;28;20039;-32
2023/10/26 00:57:17;;;;;;;6.07;1.20;;;;;;;20.97;67.36;95557.00;5094192;28;20020;-34
2023/10/26 00:59:45;;;;;;;10.70;2.00;;;;;;;21.01;67.20;95551.22;5094099;28;20036;-30
2023/10/26 01:02:13;;;;;;;8.60;1.60;;;;;;;21.03;67.33;95565.94;5093857;28;20024;-31
2023/10/26 01:04:39;;;;;;;7.22;1.60;;;;;;;21.15;66.96;95566.56;5093327;28;20020;-32
2023/10/26 01:07:04;;;;;;;8.90;1.83;;;;;;;21.28;66.38;95560.47;5093653;28;20062;-31
2023/10/26 01:09:30;;;;;;;11.95;1.95;;;;;;;21.20;66.60;95568.56;5093693;28;20031;-30
2023/10/26 01:11:55;;;;;;;11.23;1.30;;;;;;;21.35;66.00;95566.16;5093604;28;20031;-30
2023/10/26 01:14:21;;;;;;;6.20;1.30;;;;;;;21.37;66.39;95558.13;5093841;28;20095;-30
2023/10/26 01:16:46;;;;;;;9.48;1.50;;;;;;;21.27;66.68;95558.97;5093273;28;20102;-31
2023/10/26 01:19:12;;;;;;;9.82;1.40;;;;;;;21.27;66.39;95559.72;5093323;28;20031;-31
2023/10/26 01:21:53;;;;;;;8.05;1.70;;;;;;;21.17;66.79;95562.03;5093621;28;20471;-31
2023/10/26 01:24:19;;;;;;;7.30;1.23;;;;;;;21.11;67.38;95557.88;5093550;28;20049;-30
2023/10/26 01:26:45;;;;;;;7.80;1.27;;;;;;;21.21;67.16;95553.53;5098252;28;20035;-31
2023/10/26 01:29:11;;;;;;;16.20;2.00;;;;;;;21.02;67.59;95556.19;5095579;28;20103;-31
2023/10/26 01:31:37;;;;;;;10.38;1.73;;;;;;;21.14;67.28;95552.03;5093574;28;20111;-30
2023/10/26 01:34:03;;;;;;;7.53;1.30;;;;;;;21.20;67.27;95556.78;5093635;28;20044;-30
2023/10/26 01:36:28;;;;;;;7.15;1.27;;;;;;;21.21;67.57;95545.25;5093695;28;20027;-31
2023/10/26 01:38:55;;;;;;;6.40;1.55;;;;;;;21.32;66.74;95545.13;5093348;28;20031;-31
2023/10/26 01:41:21;;;;;;;6.45;1.27;;;;;;;21.23;67.06;95542.72;5093806;28;20072;-31
2023/10/26 01:43:47;;;;;;;7.68;1.38;;;;;;;21.18;67.60;95543.50;5093298;28;20020;-31
2023/10/26 01:46:12;;;;;;;3.75;1.25;;;;;;;21.11;67.75;95563.38;5093296;28;20039;-31
2023/10/26 01:48:38;;;;;;;5.72;1.50;;;;;;;21.27;67.35;95559.72;5094039;28;20020;-30
2023/10/26 01:51:04;;;;;;;5.95;1.30;;;;;;;21.22;67.55;95546.75;5097893;28;20019;-30
2023/10/26 01:53:29;;;;;;;5.35;1.20;;;;;;;21.09;67.66;95541.84;5104335;28;20039;-31
2023/10/26 01:55:55;;;;;;;7.70;1.95;;;;;;;21.15;67.57;95537.00;5097443;28;20459;-31
2023/10/26 01:58:20;;;;;;;4.55;1.23;;;;;;;21.05;68.22;95538.63;5097216;28;20106;-30
2023/10/26 02:00:46;;;;;;;4.80;1.70;;;;;;;21.06;68.06;95526.31;5096959;28;20039;-30
2023/10/26 02:03:11;;;;;;;6.88;1.40;;;;;;;21.20;67.91;95537.50;5096893;28;20024;-32
2023/10/26 02:05:37;;;;;;;6.43;1.13;;;;;;;21.31;67.18;95531.84;5096783;28;20016;-31
2023/10/26 02:08:02;;;;;;;6.88;1.40;;;;;;;21.03;68.24;95512.81;5104155;28;20114;-31
2023/10/26 02:10:30;;;;;;;8.35;1.70;;;;;;;21.23;67.75;95522.69;5103155;28;20085;-32
2023/10/26 02:12:56;;;;;;;8.90;2.03;;;;;;;20.97;68.68;95521.16;5096761;28;20047;-31
2023/10/26 02:15:22;;;;;;;7.78;1.55;;;;;;;20.88;68.95;95518.75;5096535;28;20466;-31
2023/10/26 02:17:48;;;;;;;9.38;1.50;;;;;;;21.02;68.42;95514.09;5096988;28;20039;-31
2023/10/26 02:20:13;;;;;;;9.63;1.50;;;;;;;21.08;67.80;95521.03;5103921;28;20023;-31
2023/10/26 02:22:39;;;;;;;8.85;2.35;;;;;;;21.16;68.04;95524.72;5096760;28;20422;-31
2023/10/26 02:25:04;;;;;;;5.55;1.73;;;;;;;21.21;67.79;95514.19;5096879;28;20024;-30
2023/10/26 02:27:31;;;;;;;7.35;1.55;;;;;;;21.25;67.31;95520.16;5096218;28;20026;-31
2023/10/26 02:29:57;;;;;;;6.72;1.60;;;;;;;21.36;66.98;95517.25;5096608;28;20028;-30
2023/10/26 02:32:22;;;;;;;6.25;1.40;;;;;;;21.36;67.22;95520.03;5096671;28;20039;-30
2023/10/26 02:34:48;;;;;;;7.60;1.48;;;;;;;21.42;66.71;95524.19;5096053;28;20020;-30
2023/10/26 02:37:13;;;;;;;8.90;1.75;;;;;;;21.17;67.72;95517.94;5096514;28;20069;-30
2023/10/26 02:39:38;;;;;;;10.15;1.40;;;;;;;21.20;67.33;95512.69;5096159;28;20031;-30
2023/10/26 02:42:04;;;;;;;9.85;2.28;;;;;;;20.93;68.30;95519.94;5096075;28;20463;-31
2023/10/26 02:44:29;;;;;;;13.82;2.42;;;;;;;20.89;68.93;95519.50;5095866;28;20044;-31
2023/10/26 02:46:55;;;;;;;8.55;2.17;;;;;;;21.24;67.74;95526.94;5096032;28;20073;-31
2023/10/26 02:49:20;;;;;;;9.60;1.73;;;;;;;21.07;68.25;95530.59;5096385;28;20064;-31
2023/10/26 02:51:46;;;;;;;9.10;1.80;;;;;;;21.08;68.43;95537.59;5096930;28;20024;-31
2023/10/26 02:54:11;;;;;;;8.70;1.60;;;;;;;21.12;68.30;95538.06;5094692;28;20047;-30
2023/10/26 02:56:37;;;;;;;9.15;1.75;;;;;;;21.11;68.10;95544.84;5096004;28;20023;-30
2023/10/26 02:59:03;;;;;;;9.43;2.15;;;;;;;20.97;68.30;95537.69;5096162;28;20047;-32
2023/10/26 03:01:33;;;;;;;10.05;1.80;;;;;;;21.14;67.92;95529.28;5095409;28;20086;-30
2023/10/26 03:04:00;;;;;;;10.73;1.70;;;;;;;21.07;68.26;95530.59;5096227;28;20019;-30
2023/10/26 03:06:26;;;;;;;8.07;1.65;;;;;;;21.15;67.87;95508.69;5096337;28;20016;-31
2023/10/26 03:08:51;;;;;;;7.97;1.55;;;;;;;21.09;68.07;95521.78;5095842;28;20374;-30
2023/10/26 03:11:16;;;;;;;10.57;1.40;;;;;;;21.29;67.15;95520.59;5095688;28;20519;-31
2023/10/26 03:13:42;;;;;;;9.20;2.05;;;;;;;21.43;66.87;95524.94;5095531;28;20016;-31
2023/10/26 03:16:07;;;;;;;9.20;1.45;;;;;;;21.24;67.22;95537.97;5095800;28;20924;-31
2023/10/26 03:18:33;;;;;;;9.25;1.38;;;;;;;21.33;66.96;95529.31;5095983;28;20027;-30
2023/10/26 03:20:58;;;;;;;12.05;1.70;;;;;;;21.26;67.01;95524.41;5095604;28;20107;-31
2023/10/26 03:23:24;;;;;;;13.73;1.80;;;;;;;21.28;66.94;95517.09;5095524;28;20024;-32
2023/10/26 03:25:49;;;;;;;11.77;2.00;;;;;;;21.23;67.44;95528.19;5093874;28;20374;-32
2023/10/26 03:28:15;;;;;;;11.57;1.63;;;;;;;21.28;66.99;95527.38;5095433;28;20522;-31
2023/10/26 03:30:40;;;;;;;11.90;1.67;;;;;;;21.35;66.44;95538.56;5095264;28;20085;-30
2023/10/26 03:33:05;;;;;;;6.47;2.10;;;;;;;21.37;66.73;95540.81;5096163;28;20426;-30
2023/10/26 03:35:35;;;;;;;12.40;1.58;;;;;;;21.38;66.73;95548.59;5095008;28;20102;-31
2023/10/26 03:38:01;;;;;;;11.23;1.70;;;;;;;21.25;67.08;95542.22;5095331;28;20020;-31
2023/10/26 03:40:27;;;;;;;11.65;1.63;;;;;;;21.08;67.33;95554.13;5095254;28;20472;-31
2023/10/26 03:42:52;;;;;;;11.65;1.73;;;;;;;21.27;66.79;95553.44;5094989;28;20020;-30
2023/10/26 03:45:18;;;;;;;6.88;1.30;;;;;;;21.32;66.79;95552.66;5101888;28;20016;-31
2023/10/26 03:47:43;;;;;;;7.25;1.83;;;;;;;21.41;66.43;95547.53;5096900;28;20383;-31
2023/10/26 03:50:09;;;;;;;9.32;1.70;;;;;;;21.36;66.34;95540.06;5100251;28;20020;-30
2023/10/26 03:52:34;;;;;;;9.27;1.60;;;;;;;21.24;66.79;95543.47;5095472;28;20063;-31
2023/10/26 03:55:00;;;;;;;6.80;1.35;;;;;;;21.26;66.74;95532.69;5094854;28;20016;-31
2023/10/26 03:57:25;;;;;;;7.65;1.35;;;;;;;21.21;66.99;95533.47;5094613;28;20458;-31
2023/10/26 03:59:51;;;;;;;7.18;1.58;;;;;;;21.32;66.81;95522.31;5095138;28;20032;-31
2023/10/26 04:02:16;;;;;;;6.03;1.70;;;;;;;21.04;67.72;95517.06;5102280;28;20027;-31
2023/10/26 04:04:42;;;;;;;3.40;1.20;;;;;;;21.22;67.25;95526.69;5094808;28;20020;-30
2023/10/26 04:07:08;;;;;;;9.35;2.13;;;;;;;21.26;66.95;95525.16;5094576;28;20379;-30
2023/10/26 04:09:33;;;;;;;9.40;1.92;;;;;;;21.24;66.91;95524.19;5093307;28;20479;-31
2023/10/26 04:11:59;;;;;;;8.60;1.55;;;;;;;21.39;66.10;95513.44;5093864;28;20031;-30
2023/10/26 04:14:25;;;;;;;9.30;1.60;;;;;;;21.12;67.39;95510.50;5097805;28;20099;-31
2023/10/26 04:16:51;;;;;;;9.02;1.90;;;;;;;21.06;67.28;95526.31;5097556;28;20028;-30
2023/10/26 04:19:16;;;;;;;9.02;2.15;;;;;;;21.18;67.08;95526.94;5094535;28;20069;-31
2023/10/26 04:21:42;;;;;;;8.05;1.70;;;;;;;21.21;66.73;95527.97;5094187;28;20031;-30
2023/10/26 04:24:07;;;;;;;7.00;1.13;;;;;;;21.30;66.35;95541.38;5094275;28;20097;-31
2023/10/26 04:26:33;;;;;;;7.20;1.25;;;;;;;21.34;66.28;95530.81;5094122;28;20023;-31
2023/10/26 04:28:58;;;;;;;7.93;1.60;;;;;;;21.36;66.10;95522.78;5101736;28;20023;-32
2023/10/26 04:31:25;;;;;;;6.43;1.40;;;;;;;21.30;66.37;95520.06;5094028;28;20023;-30
2023/10/26 04:33:51;;;;;;;12.02;1.60;;;;;;;21.36;66.24;95518.00;5094499;28;20024;-31
2023/10/26 04:36:18;;;;;;;6.43;1.33;;;;;;;21.26;66.45;95521.66;5094090;28;20023;-31
2023/10/26 04:38:43;;;;;;;7.03;1.80;;;;;;;21.25;66.40;95509.88;5094108;28;20031;-31
2023/10/26 04:41:09;;;;;;;8.13;1.23;;;;;;;21.27;66.21;95503.81;5094409;28;20012;-31
2023/10/26 04:43:34;;;;;;;6.22;1.50;;;;;;;21.23;66.12;95497.88;5093748;28;20494;-31
2023/10/26 04:46:00;;;;;;;6.30;1.40;;;;;;;21.27;66.05;95498.28;5094253;28;20031;-31
2023/10/26 04:48:26;;;;;;;8.88;1.75;;;;;;;21.29;65.81;95498.53;5093930;28;20020;-30
2023/10/26 04:50:52;;;;;;;6.65;1.20;;;;;;;21.32;65.42;95489.97;5093855;28;20027;-31
2023/10/26 04:53:17;;;;;;;8.68;1.63;;;;;;;21.37;65.75;95491.19;5093772;28;20036;-30
2023/10/26 04:55:43;;;;;;;5.95;1.73;;;;;;;21.22;65.89;95490.84;5094061;28;20028;-30
2023/10/26 04:58:09;;;;;;;5.03;1.27;;;;;;;21.29;65.64;95495.78;5093991;28;20055;-30
2023/10/26 05:00:34;;;;;;;7.07;1.60;;;;;;;21.40;65.08;95490.13;5093739;28;20027;-31
2023/10/26 05:03:00;;;;;;;7.00;2.03;;;;;;;21.30;65.32;95503.53;5093699;28;20024;-31
2023/10/26 05:05:26;;;;;;;6.97;1.40;;;;;;;21.36;65.32;95506.22;5093778;28;20121;-31
2023/10/26 05:07:51;;;;;;;12.65;2.03;;;;;;;21.28;65.63;95503.28;5093944;28;20028;-30
2023/10/26 05:10:17;;;;;;;5.65;1.33;;;;;;;21.34;65.41;95520.53;5093858;28;20344;-31
2023/10/26 05:12:42;;;;;;;10.65;1.70;;;;;;;21.30;65.56;95520.06;5093503;28;20031;-31
2023/10/26 05:15:08;;;;;;;7.93;1.70;;;;;;;21.32;65.67;95522.31;5093767;28;20081;-30
2023/10/26 05:17:35;;;;;;;9.60;2.55;;;;;;;21.41;65.28;95530.22;5093409;28;20028;-31
2023/10/26 05:20:01;;;;;;;7.47;2.15;;;;;;;21.28;65.21;95521.84;5093499;28;20107;-31
2023/10/26 05:22:26;;;;;;;5.20;2.03;;;;;;;21.34;65.24;95519.78;5092470;28;20026;-31
2023/10/26 05:24:52;;;;;;;6.43;1.52;;;;;;;21.34;65.50;95515.03;5096724;28;20020;-31
2023/10/26 05:27:18;;;;;;;7.80;2.08;;;;;;;21.28;65.58;95519.84;5097801;28;20039;-31
2023/10/26 05:29:44;;;;;;;12.50;2.00;;;;;;;21.28;65.59;95517.09;5097560;28;20387;-31
2023/10/26 05:32:09;;;;;;;7.32;1.48;;;;;;;21.34;65.28;95509.50;5097787;28;20019;-31
2023/10/26 05:34:34;;;;;;;7.95;1.95;;;;;;;21.40;65.02;95507.41;5098107;28;20023;-31
2023/10/26 05:37:00;;;;;;;8.32;2.10;;;;;;;21.35;65.55;95515.78;5097601;28;20459;-31
2023/10/26 05:39:25;;;;;;;9.07;1.50;;;;;;;21.37;65.41;95521.53;5098028;28;20508;-30
2023/10/26 05:41:52;;;;;;;5.95;1.55;;;;;;;21.45;65.05;95519.66;5097403;28;20485;-31
2023/10/26 05:44:18;;;;;;;7.43;1.80;;;;;;;21.24;65.93;95524.91;5097217;28;20459;-30
2023/10/26 05:46:43;;;;;;;12.82;1.83;;;;;;;21.17;66.19;95540.00;5097431;28;20043;-31
2023/10/26 05:49:09;;;;;;;9.55;1.58;;;;;;;21.26;65.80;95544.47;5097088;28;20024;-30
2023/10/26 05:51:34;;;;;;;11.32;2.30;;;;;;;21.26;66.04;95547.22;5097364;28;20024;-31
2023/10/26 05:54:00;;;;;;;8.55;2.05;;;;;;;21.28;65.65;95550.19;5104434;28;20088;-31
2023/10/26 05:56:26;;;;;;;10.07;2.05;;;;;;;21.33;65.71;95567.94;5096981;28;20028;-30
2023/10/26 05:58:51;;;;;;;6.93;1.83;;;;;;;21.41;65.18;95564.06;5097240;28;20039;-30
2023/10/26 06:01:17;;;;;;;8.43;1.90;;;;;;;21.39;65.13;95571.38;5097472;28;20019;-30
2023/10/26 06:03:44;;;;;;;9.23;1.80;;;;;;;21.27;65.67;95564.47;5097162;28;20117;-30
2023/10/26 06:06:09;;;;;;;7.55;1.52;;;;;;;21.35;65.42;95568.16;5099760;28;20015;-31
2023/10/26 06:08:35;;;;;;;8.68;1.65;;;;;;;21.31;65.83;95573.22;5101246;28;20042;-30
2023/10/26 06:11:01;;;;;;;9.65;1.92;;;;;;;21.34;65.71;95574.94;5104736;28;20032;-31
2023/10/26 06:13:26;;;;;;;9.65;1.92;;;;;;;21.28;66.21;95577.00;5096778;28;20018;-30
2023/10/26 06:15:52;;;;;;;6.57;1.42;;;;;;;21.34;65.87;95581.22;5097013;28;20073;-30
2023/10/26 06:18:18;;;;;;;5.90;1.52;;;;;;;21.36;65.75;95589.72;5104193;28;20016;-30
2023/10/26 06:20:56;;;;;;;13.07;2.53;;;;;;;21.43;65.50;95583.63;5096687;28;20016;-30
2023/10/26 06:23:21;;;;;;;8.68;1.77;;;;;;;21.39;65.25;95582.41;5096886;28;20028;-30
2023/10/26 06:25:46;;;;;;;6.63;1.83;;;;;;;21.35;65.65;95576.44;5096569;28;20039;-32
2023/10/26 06:28:13;;;;;;;9.35;1.77;;;;;;;21.29;65.98;95584.75;5096456;28;20374;-31
2023/10/26 06:30:38;;;;;;;8.18;1.40;;;;;;;21.15;66.55;95580.38;5096502;28;20020;-30
2023/10/26 06:33:04;;;;;;;9.32;1.65;;;;;;;21.24;65.85;95582.09;5096903;28;20478;-31
2023/10/26 06:35:29;;;;;;;7.57;1.88;;;;;;;21.40;65.42;95575.63;5095427;28;20024;-30
2023/10/26 06:37:55;;;;;;;9.30;1.80;;;;;;;21.23;66.06;95575.81;5096208;28;20100;-30
2023/10/26 06:40:20;;;;;;;7.18;1.73;;;;;;;21.22;66.00;95579.09;5096759;28;20035;-32
2023/10/26 06:42:45;;;;;;;7.80;1.30;;;;;;;21.24;66.12;95576.56;5096170;28;20041;-31
2023/10/26 06:45:11;;;;;;;7.63;1.10;;;;;;;21.03;66.79;95574.22;5096365;28;20068;-31
2023/10/26 06:47:38;;;;;;;8.23;1.45;;;;;;;21.00;66.73;95589.06;5096115;28;20016;-30
2023/10/26 06:50:05;;;;;;;8.48;1.75;;;;;;;21.25;66.05;95584.31;5096512;28;20459;-30
2023/10/26 06:52:30;;;;;;;9.10;1.58;;;;;;;21.27;65.67;95597.56;5096240;28;20104;-31
2023/10/26 06:54:56;;;;;;;8.40;1.50;;;;;;;21.17;66.03;95595.13;5096120;28;20054;-31
2023/10/26 06:57:21;;;;;;;6.30;1.27;;;;;;;21.30;65.49;95596.53;5096023;28;20032;-31
2023/10/26 06:59:47;;;;;;;6.72;1.25;;;;;;;21.40;65.45;95605.97;5096435;28;20020;-30
2023/10/26 07:02:12;;;;;;;7.22;1.10;;;;;;;21.29;65.54;95600.56;5095794;28;20459;-31
2023/10/26 07:04:38;;;;;;;5.82;1.00;;;;;;;21.17;65.78;95597.91;5095812;28;20017;-30
2023/10/26 07:07:04;;;;;;;8.55;1.77;;;;;;;21.14;66.00;95604.44;5103538;28;20102;-31
2023/10/26 07:09:29;;;;;;;4.47;1.08;;;;;;;21.35;65.47;95604.78;5095602;28;20022;-31
2023/10/26 07:11:55;;;;;;;12.23;1.52;;;;;;;21.17;65.87;95606.16;5095737;28;20472;-30
2023/10/26 07:14:21;;;;;;;10.10;1.50;;;;;;;21.31;65.25;95596.03;5095881;28;20054;-31
2023/10/26 07:16:46;;;;;;;8.57;1.52;;;;;;;21.26;65.63;95590.59;5095431;28;20024;-31
2023/10/26 07:19:11;;;;;;;10.15;1.58;;;;;;;21.07;65.92;95585.72;5095995;28;20027;-31
2023/10/26 07:21:37;;;;;;;6.13;2.13;;;;;;;21.22;65.30;95601.91;5095623;28;20069;-30
2023/10/26 07:24:03;;;;;;;4.28;0.98;;;;;;;21.13;65.72;95597.44;5095629;28;20106;-31
2023/10/26 07:26:29;;;;;;;5.35;1.40;;;;;;;21.05;65.48;95599.25;5095406;28;20035;-31
2023/10/26 07:28:56;;;;;;;8.02;1.73;;;;;;;21.37;64.83;95601.50;5095242;28;20024;-30
2023/10/26 07:31:22;;;;;;;8.55;1.10;;;;;;;21.16;65.16;95621.22;5095401;28;20016;-30
2023/10/26 07:33:48;;;;;;;8.80;1.20;;;;;;;21.11;65.58;95632.31;5095708;28;20544;-30
2023/10/26 07:36:14;;;;;;;3.05;1.00;;;;;;;21.15;65.28;95633.50;5102749;28;20024;-31
2023/10/26 07:38:40;;;;;;;6.10;1.10;;;;;;;21.28;64.29;95637.69;5095277;28;20053;-30
2023/10/26 07:41:07;;;;;;;6.85;1.20;;;;;;;21.34;63.92;95638.38;5095009;28;20052;-30
2023/10/26 07:43:33;;;;;;;10.20;1.52;;;;;;;21.29;64.29;95633.66;5095192;28;20537;-31
2023/10/26 07:45:58;;;;;;;5.45;1.00;;;;;;;21.25;63.99;95633.22;5094945;28;20027;-32
2023/10/26 07:48:24;;;;;;;8.82;1.33;;;;;;;21.23;63.73;95641.25;5102062;28;20111;-31
2023/10/26 07:50:51;;;;;;;2.25;0.80;;;;;;;21.16;64.29;95645.28;5094858;28;20078;-30
2023/10/26 07:53:16;;;;;;;5.03;1.08;;;;;;;21.26;63.66;95640.22;5094798;28;20044;-30
2023/10/26 07:55:43;;;;;;;6.60;0.90;;;;;;;21.26;63.57;95634.72;5094845;28;20022;-31
2023/10/26 07:58:09;;;;;;;7.15;0.90;;;;;;;21.27;63.50;95625.16;5094584;28;20020;-31
2023/10/26 08:00:37;;;;;;;4.88;0.93;;;;;;;21.16;63.89;95618.47;5094604;28;20429;-31
2023/10/26 08:03:03;;;;;;;4.28;1.15;;;;;;;21.07;64.29;95620.81;5095725;28;20020;-31
2023/10/26 08:05:29;;;;;;;7.70;1.35;;;;;;;21.14;64.31;95612.69;5094978;28;20034;-30
2023/10/26 08:07:55;;;;;;;5.40;1.70;;;;;;;20.89;65.36;95604.94;5094646;28;20044;-31
2023/10/26 08:10:20;;;;;;;5.85;1.27;;;;;;;21.03;65.36;95601.03;5094884;28;20027;-31
2023/10/26 08:12:46;;;;;;;2.85;1.20;;;;;;;21.30;64.18;95610.34;5094437;28;20031;-31
2023/10/26 08:15:11;;;;;;;6.30;1.42;;;;;;;21.20;65.12;95614.69;5102026;28;20028;-31
2023/10/26 08:17:36;;;;;;;4.13;0.85;;;;;;;21.21;64.87;95608.69;5094578;28;20044;-30
2023/10/26 08:20:06;;;;;;;3.30;1.10;;;;;;;21.15;65.27;95608.69;5094420;28;20023;-31
2023/10/26 08:22:33;;;;;;;5.63;1.08;;;;;;;21.37;64.16;95612.53;5094286;28;20353;-30
2023/10/26 08:24:59;;;;;;;5.90;1.25;;;;;;;21.26;64.36;95598.88;5092919;28;20020;-31
2023/10/26 08:27:25;;;;;;;6.05;1.23;;;;;;;21.19;65.07;95602.19;5094389;28;20094;-31
2023/10/26 08:29:50;;;;;;;6.63;1.30;;;;;;;21.32;64.73;95600.28;5094354;28;20024;-31
2023/10/26 08:32:16;;;;;;;6.18;1.48;;;;;;;21.30;65.15;95585.50;5094993;28;20055;-31
2023/10/26 08:34:41;;;;;;;4.70;1.00;;;;;;;21.22;65.41;95579.09;5094327;28;20087;-31
2023/10/26 08:37:07;;;;;;;4.45;1.00;;;;;;;21.22;65.53;95587.38;5094130;28;20020;-31
2023/10/26 08:39:32;;;;;;;3.58;0.95;;;;;;;21.16;66.29;95588.13;5094233;28;20038;-31
2023/10/26 08:42:01;;;;;;;6.55;1.35;;;;;;;21.30;65.95;95585.50;5094187;28;20022;-31
2023/10/26 08:44:28;;;;;;;4.55;1.00;;;;;;;21.14;66.46;95582.38;5094305;28;20030;-31
2023/10/26 08:46:58;;;;;;;9.73;1.55;;;;;;;21.19;66.35;95582.88;5092771;28;20022;-31
2023/10/26 08:49:27;;;;;;;4.20;1.25;;;;;;;21.29;65.62;95578.50;5093907;28;20042;-30
2023/10/26 08:51:53;;;;;;;4.93;1.30;;;;;;;21.37;65.71;95574.66;5101192;28;20038;-31
2023/10/26 08:54:19;;;;;;;6.00;1.48;;;;;;;21.38;65.87;95564.38;5093652;28;20043;-31
2023/10/26 08:56:44;;;;;;;6.05;1.50;;;;;;;21.31;66.73;95568.44;5094132;28;20028;-31
2023/10/26 08:59:10;;;;;;;7.32;1.33;;;;;;;21.39;65.89;95554.81;5093133;28;20026;-31
2023/10/26 09:01:35;;;;;;;4.07;1.27;;;;;;;21.44;65.87;95546.50;5093897;28;20459;-31
2023/10/26 09:04:11;;;;;;;3.92;1.13;;;;;;;21.35;66.93;95543.34;5093508;28;20069;-31
2023/10/26 09:06:46;;;;;;;3.50;1.30;;;;;;;21.53;65.54;95550.91;5094089;28;20023;-31
2023/10/26 09:09:12;;;;;;;4.38;1.38;;;;;;;21.48;65.98;95551.72;5100959;28;20467;-31
2023/10/26 09:11:38;;;;;;;6.57;1.77;;;;;;;21.64;65.12;95556.28;5092647;28;20035;-30
2023/10/26 09:14:20;;;;;;;3.85;0.95;;;;;;;21.58;65.55;95561.13;5094304;28;20352;-31
2023/10/26 09:16:47;;;;;;;2.47;0.80;;;;;;;21.69;64.61;95554.72;5093507;28;20467;-30
2023/10/26 09:19:14;;;;;;;4.82;1.02;;;;;;;21.81;64.13;95554.06;5093873;28;20028;-31
2023/10/26 09:21:56;;;;;;;3.03;0.70;;;;;;;21.74;64.51;95553.91;5093631;28;20348;-31
2023/10/26 09:24:26;;;;;;;5.97;0.98;;;;;;;21.79;64.50;95559.34;5093648;28;20048;-30
2023/10/26 09:26:54;;;;;;;5.13;0.80;;;;;;;21.75;64.12;95563.69;5093574;28;20024;-31
2023/10/26 09:29:35;;;;;;;3.50;0.80;;;;;;;21.70;63.98;95554.19;5094307;28;20028;-31
2023/10/26 09:32:00;;;;;;;4.38;0.80;;;;;;;21.66;64.21;95561.28;5097228;28;20028;-31
2023/10/26 09:34:27;;;;;;;4.97;1.00;;;;;;;21.61;64.70;95554.56;5093472;28;20027;-32
2023/10/26 09:37:03;;;;;;;4.05;0.70;;;;;;;21.50;65.16;95555.47;5093489;28;20024;-31
2023/10/26 09:39:31;;;;;;;4.63;0.95;;;;;;;21.74;64.16;95556.69;5093700;28;20060;-31
2023/10/26 09:42:02;;;;;;;3.67;0.90;;;;;;;21.50;65.00;95560.22;5093635;28;20024;-31
2023/10/26 09:44:29;;;;;;;5.28;1.20;;;;;;;21.59;65.18;95562.63;5100477;28;20097;-31
2023/10/26 09:46:55;;;;;;;5.97;1.15;;;;;;;21.84;63.68;95566.81;5093488;28;20118;-31
2023/10/26 09:49:26;;;;;;;4.80;1.20;;;;;;;21.87;64.10;95565.03;5093216;28;20491;-30
2023/10/26 09:51:52;;;;;;;5.38;0.95;;;;;;;22.00;63.30;95572.69;5100674;28;20039;-31
2023/10/26 09:54:20;;;;;;;7.45;0.80;;;;;;;21.99;62.95;95582.97;5100319;28;20040;-31
2023/10/26 09:56:51;;;;;;;3.90;0.80;;;;;;;22.05;62.72;95586.38;5100481;28;20119;-31
2023/10/26 09:59:18;;;;;;;5.00;0.90;;;;;;;22.16;63.00;95577.19;5093268;28;20016;-31
2023/10/26 10:01:45;;;;;;;5.35;0.90;;;;;;;21.68;64.39;95575.31;5093265;28;20059;-31
2023/10/26 10:04:11;;;;;;;4.85;0.80;;;;;;;21.84;63.29;95566.81;5092756;28;20039;-31
2023/10/26 10:06:54;;;;;;;5.35;0.90;;;;;;;21.87;63.91;95576.06;5093270;28;20522;-30
2023/10/26 10:09:24;;;;;;;3.97;0.85;;;;;;;21.99;63.22;95574.69;5097980;28;20026;-31
2023/10/26 10:12:09;;;;;;;3.03;0.95;;;;;;;22.09;62.88;95556.47;5099718;27;20050;-31
2023/10/26 10:14:47;;;;;;;4.15;1.20;;;;;;;22.00;63.51;95551.34;5097365;28;20058;-30
2023/10/26 10:17:14;;;;;;;4.65;1.65;;;;;;;21.95;63.28;95554.13;5096852;28;20023;-30
2023/10/26 10:19:45;;;;;;;5.63;1.10;;;;;;;22.04;63.16;95565.56;5096705;28;20020;-31
2023/10/26 10:22:37;;;;;;;5.53;1.00;;;;;;;21.92;63.76;95566.97;5097064;28;20028;-31
2023/10/26 10:25:03;;;;;;;4.30;1.05;;;;;;;22.17;62.57;95568.41;5096210;28;20024;-31
2023/10/26 10:27:28;;;;;;;6.88;1.15;;;;;;;21.77;64.38;95570.16;5096758;28;20023;-31
2023/10/26 10:29:57;;;;;;;3.58;0.93;;;;;;;21.92;62.54;95560.69;5096671;28;20051;-31
2023/10/26 10:32:42;;;;;;;5.35;1.08;;;;;;;22.18;62.04;95571.91;5096342;28;20028;-31
2023/10/26 10:35:08;;;;;;;4.63;0.88;;;;;;;22.06;62.64;95587.13;5096566;28;20028;-30
2023/10/26 10:37:34;;;;;;;6.95;1.05;;;;;;;21.96;62.58;95588.75;5096399;28;20074;-30
2023/10/26 10:40:13;;;;;;;2.70;0.73;;;;;;;21.96;62.59;95594.28;5096688;28;20510;-31
2023/10/26 10:42:44;;;;;;;3.92;0.90;;;;;;;22.04;61.85;95589.66;5096872;28;20023;-31
2023/10/26 10:45:13;;;;;;;3.83;1.08;;;;;;;21.90;62.42;95590.84;5096235;28;20016;-30
2023/10/26 10:47:43;;;;;;;3.63;1.40;;;;;;;21.81;62.46;95591.94;5096107;28;20027;-31
2023/10/26 10:50:26;;;;;;;3.35;0.80;;;;;;;21.88;62.37;95592.09;5096180;28;20016;-31
2023/10/26 10:52:56;;;;;;;4.80;0.73;;;;;;;21.96;61.76;95595.03;5104421;28;20044;-30
2023/10/26 10:55:29;;;;;;;6.93;1.70;;;;;;;21.90;61.88;95594.34;5096309;28;20027;-31
2023/10/26 10:57:55;;;;;;;4.22;0.95;;;;;;;21.88;62.66;95587.88;5103822;28;20055;-30
2023/10/26 11:00:24;;;;;;;4.95;1.00;;;;;;;22.06;62.08;95600.94;5096127;28;20047;-31
2023/10/26 11:02:49;;;;;;;4.20;0.80;;;;;;;21.81;63.42;95589.94;5096134;28;20682;-31
2023/10/26 11:05:18;;;;;;;4.53;0.80;;;;;;;21.85;62.98;95579.34;5094829;28;20020;-32
2023/10/26 11:07:44;;;;;;;4.07;0.80;;;;;;;21.73;63.34;95588.28;5095823;28;20020;-31
2023/10/26 11:10:10;;;;;;;6.53;0.80;;;;;;;21.85;62.79;95590.41;5103491;28;20019;-30
2023/10/26 11:12:36;;;;;;;3.53;0.95;;;;;;;21.95;62.93;95581.75;5095853;28;20430;-31
2023/10/26 11:15:03;;;;;;;4.05;0.98;;;;;;;21.80;63.04;95593.97;5096539;28;20031;-31
2023/10/26 11:17:30;;;;;;;3.97;0.70;;;;;;;21.96;62.68;95597.03;5095543;28;20030;-31
2023/10/26 11:19:55;;;;;;;2.47;0.90;;;;;;;21.82;62.97;95598.97;5095810;28;20107;-31
2023/10/26 11:22:27;;;;;;;9.60;1.45;;;;;;;21.97;62.48;95598.53;5095434;28;20450;-30
2023/10/26 11:24:53;;;;;;;6.43;1.80;;;;;;;21.81;63.16;95594.72;5095281;28;20051;-31
2023/10/26 11:27:23;;;;;;;4.10;1.02;;;;;;;21.75;63.30;95594.78;5095404;28;20052;-31
2023/10/26 11:30:06;;;;;;;6.07;1.00;;;;;;;22.08;62.30;95592.88;5095561;28;20077;-31